Terminal Aerodrome Forecast
Issued by NWS

Home | Current Version | Previous Version | Text Only | Print | Product List | Glossary On
Versions: 1 2 3 4 5 6 7 8 9 10 11 12 13 14 15 16 17 18 19 20 21 22 23 24 25
000
FTAK31 PAFA 191720
TAFAQT
TAF
PAQT 191720Z 1918/2018 25027G36KT 1/4SM -SN FZFG BKN006 OVC025
     FM201000 24020G30KT 1 1/2SM BLSN BR BKN008 OVC015
     FM201300 23020KT 1 1/2SM BR OVC015=

USA.gov is the U.S. government's official web portal to all federal, state and local government web resources and services.